createdAt,value
2023-03-28T00:04:41.910Z,102743.91
2023-03-28T00:09:36.046Z,102746.25
2023-03-28T00:14:29.815Z,102748.69
2023-03-28T00:19:26.802Z,102745.56
2023-03-28T00:24:17.379Z,102746.56
2023-03-28T00:29:09.672Z,102747.06
2023-03-28T00:34:11.683Z,102742.78
2023-03-28T00:39:11.779Z,102742.69
2023-03-28T00:44:03.218Z,102739.88
2023-03-28T00:49:00.025Z,102738.03
2023-03-28T00:53:56.390Z,102741.03
2023-03-28T00:58:50.540Z,102735.72
2023-03-28T01:03:47.826Z,102729.94
2023-03-28T01:08:46.071Z,102727.06
2023-03-28T01:13:42.738Z,102729.63
2023-03-28T01:18:38.218Z,102727.28
2023-03-28T01:23:43.032Z,102713.41
2023-03-28T01:28:57.232Z,102707.81
2023-03-28T01:34:09.224Z,102703.63
2023-03-28T01:39:13.909Z,102702.69
2023-03-28T01:44:23.372Z,102715.09
2023-03-28T01:49:25.726Z,102714.00
2023-03-28T01:54:22.172Z,102721.50
2023-03-28T01:59:17.317Z,102717.88
2023-03-28T02:04:31.911Z,102713.88
2023-03-28T02:09:27.312Z,102717.19
2023-03-28T02:14:36.773Z,102704.16
2023-03-28T02:20:09.182Z,102707.38
2023-03-28T02:25:27.462Z,102710.56
2023-03-28T02:30:30.493Z,102701.03
2023-03-28T02:35:26.057Z,102698.38
2023-03-28T02:40:31.070Z,102699.88
2023-03-28T02:45:39.410Z,102696.00
2023-03-28T02:50:39.060Z,102694.34
2023-03-28T02:55:51.624Z,102694.97
2023-03-28T03:01:15.170Z,102694.09
2023-03-28T03:06:07.369Z,102689.47
2023-03-28T03:11:04.029Z,102688.09
2023-03-28T03:15:56.846Z,102687.16
2023-03-28T03:20:54.088Z,102683.78
2023-03-28T03:25:45.741Z,102690.31
2023-03-28T03:30:45.712Z,102683.84
2023-03-28T03:36:14.723Z,102683.59
2023-03-28T03:41:07.774Z,102684.31
2023-03-28T03:46:05.415Z,102682.47
2023-03-28T03:50:57.672Z,102677.94
2023-03-28T03:55:50.457Z,102670.25
2023-03-28T04:00:41.549Z,102672.28
2023-03-28T04:05:47.649Z,102672.94
2023-03-28T04:10:46.167Z,102677.88
2023-03-28T04:15:47.359Z,102664.09
2023-03-28T04:20:56.282Z,102676.72
2023-03-28T04:26:05.229Z,102673.19
2023-03-28T04:31:19.210Z,102665.44
2023-03-28T04:36:47.725Z,102660.84
2023-03-28T04:42:05.032Z,102664.88
2023-03-28T04:47:28.137Z,102678.84
2023-03-28T04:52:41.724Z,102671.44
2023-03-28T04:57:35.107Z,102662.44
2023-03-28T05:02:34.802Z,102666.50
2023-03-28T05:07:30.434Z,102670.72
2023-03-28T05:12:22.098Z,102666.50
2023-03-28T05:17:28.044Z,102674.16
2023-03-28T05:22:36.907Z,102670.66
2023-03-28T05:27:36.065Z,102682.75
2023-03-28T05:32:28.440Z,102682.81
2023-03-28T05:37:19.723Z,102684.63
2023-03-28T05:42:24.497Z,102691.31
2023-03-28T05:47:15.466Z,102688.13
2023-03-28T05:52:22.456Z,102689.97
2023-03-28T05:57:21.276Z,102682.41
2023-03-28T06:02:20.815Z,102689.00
2023-03-28T06:07:14.278Z,102694.06
2023-03-28T06:12:10.676Z,102694.31
2023-03-28T06:17:11.287Z,102692.72
2023-03-28T06:22:21.056Z,102688.66
2023-03-28T06:27:17.914Z,102705.00
2023-03-28T06:32:09.573Z,102701.63
2023-03-28T06:37:01.477Z,102690.94
2023-03-28T06:42:09.151Z,102697.47
2023-03-28T06:47:12.544Z,102696.53
2023-03-28T06:52:03.941Z,102698.91
2023-03-28T06:56:57.700Z,102702.94
2023-03-28T07:01:51.989Z,102704.28
2023-03-28T07:06:56.407Z,102702.59
2023-03-28T07:11:47.575Z,102702.84
2023-03-28T07:16:38.185Z,102709.38
2023-03-28T07:21:34.189Z,102699.06
2023-03-28T07:26:29.016Z,102695.19
2023-03-28T07:31:24.518Z,102696.75
2023-03-28T07:36:17.984Z,102697.13
2023-03-28T07:41:16.713Z,102695.56
2023-03-28T07:46:10.137Z,102694.88
2023-03-28T07:51:04.454Z,102696.69
2023-03-28T07:55:55.985Z,102694.19
2023-03-28T08:01:08.695Z,102689.69
2023-03-28T08:06:29.203Z,102688.81
2023-03-28T08:11:28.549Z,102697.22
2023-03-28T08:16:25.254Z,102690.31
2023-03-28T08:21:20.247Z,102693.59
2023-03-28T08:26:11.997Z,102695.03
2023-03-28T08:31:14.861Z,102699.09
2023-03-28T08:36:19.586Z,102685.63
2023-03-28T08:41:22.407Z,102688.28
2023-03-28T08:46:28.282Z,102685.44
2023-03-28T08:51:26.573Z,102691.81
2023-03-28T08:56:19.678Z,102694.22
2023-03-28T09:01:16.848Z,102693.22
2023-03-28T09:06:18.944Z,102693.09
2023-03-28T09:11:20.662Z,102677.16
2023-03-28T09:16:21.909Z,102685.47
2023-03-28T09:21:35.152Z,102668.91
2023-03-28T09:26:37.787Z,102666.81
2023-03-28T09:31:42.689Z,102659.00
2023-03-28T09:36:48.397Z,102649.78
2023-03-28T09:41:55.417Z,102628.66
2023-03-28T09:47:35.607Z,102632.59
2023-03-28T09:52:40.070Z,102634.00
2023-03-28T09:58:05.814Z,102623.06
2023-03-28T10:03:25.044Z,102627.13
2023-03-28T10:08:40.807Z,102611.72
2023-03-28T10:13:49.524Z,102581.75
2023-03-28T10:18:44.951Z,102594.22
2023-03-28T10:24:03.272Z,102597.25
2023-03-28T10:29:15.663Z,102589.25
2023-03-28T10:34:09.703Z,102583.63
2023-03-28T10:39:32.654Z,102567.41
2023-03-28T10:45:05.228Z,102561.22
2023-03-28T10:50:01.504Z,102547.88
2023-03-28T10:55:10.164Z,102548.34
2023-03-28T11:00:25.004Z,102535.81
2023-03-28T11:05:37.886Z,102527.31
2023-03-28T11:10:42.948Z,102521.00
2023-03-28T11:15:51.498Z,102506.97
2023-03-28T11:21:01.089Z,102515.31
2023-03-28T11:26:08.964Z,102503.91
2023-03-28T11:31:41.679Z,102496.28
2023-03-28T11:36:49.778Z,102479.34
2023-03-28T11:41:47.045Z,102471.09
2023-03-28T11:46:53.160Z,102460.59
2023-03-28T11:51:50.761Z,102455.13
2023-03-28T11:56:55.665Z,102435.16
2023-03-28T12:02:47.885Z,102431.06
2023-03-28T12:07:47.680Z,102427.44
2023-03-28T12:13:02.684Z,102426.22
2023-03-28T12:18:24.528Z,102420.69
2023-03-28T12:23:27.654Z,102421.84
2023-03-28T12:29:01.004Z,102397.25
2023-03-28T12:34:07.448Z,102403.06
2023-03-28T12:39:36.054Z,102401.63
2023-03-28T12:44:50.545Z,102381.13
2023-03-28T12:49:53.063Z,102373.34
2023-03-28T12:55:01.471Z,102360.31
2023-03-28T13:00:29.620Z,102358.97
2023-03-28T13:05:53.603Z,102356.69
2023-03-28T13:10:50.735Z,102356.03
2023-03-28T13:16:00.088Z,102336.19
2023-03-28T13:20:55.612Z,102331.50
2023-03-28T13:25:48.838Z,102327.91
2023-03-28T13:30:40.228Z,102319.78
2023-03-28T13:35:50.333Z,102322.94
2023-03-28T13:40:52.024Z,102315.09
2023-03-28T13:45:43.697Z,102316.03
2023-03-28T13:50:37.770Z,102289.94
2023-03-28T13:55:34.243Z,102277.66
2023-03-28T14:00:31.984Z,102278.75
2023-03-28T14:05:30.521Z,102273.31
2023-03-28T14:10:31.263Z,102257.50
2023-03-28T14:15:34.269Z,102253.06
2023-03-28T14:20:26.770Z,102249.63
2023-03-28T14:25:19.788Z,102239.06
2023-03-28T14:30:23.034Z,102228.09
2023-03-28T14:35:23.478Z,102228.97
2023-03-28T14:40:34.356Z,102216.19
2023-03-28T14:45:28.522Z,102212.00
2023-03-28T14:50:24.956Z,102188.66
2023-03-28T14:55:21.678Z,102186.03
2023-03-28T15:00:19.652Z,102165.91
2023-03-28T15:05:16.216Z,102176.41
2023-03-28T15:10:14.259Z,102154.72
2023-03-28T15:15:08.239Z,102150.13
2023-03-28T15:20:06.220Z,102135.47
2023-03-28T15:25:00.581Z,102119.81
2023-03-28T15:29:58.415Z,102119.91
2023-03-28T15:34:50.237Z,102120.88
2023-03-28T15:39:42.102Z,102103.63
2023-03-28T15:44:38.870Z,102100.38
2023-03-28T15:49:43.340Z,102092.44
2023-03-28T15:54:37.783Z,102079.34
2023-03-28T15:59:36.203Z,102085.44
2023-03-28T16:04:29.521Z,102094.88
2023-03-28T16:09:24.853Z,102087.75
2023-03-28T16:14:19.040Z,102090.19
2023-03-28T16:19:36.768Z,102089.16
2023-03-28T16:24:34.836Z,102085.72
2023-03-28T16:29:28.943Z,102073.50
2023-03-28T16:34:21.340Z,102084.59
2023-03-28T16:39:14.146Z,102086.25
2023-03-28T16:44:10.212Z,102071.28
2023-03-28T16:49:01.502Z,102058.31
2023-03-28T16:53:55.018Z,102053.75
2023-03-28T16:58:46.712Z,102039.75
2023-03-28T17:03:42.892Z,102034.44
2023-03-28T17:08:34.679Z,102023.28
2023-03-28T17:13:25.864Z,102017.72
2023-03-28T17:18:17.110Z,102023.56
2023-03-28T17:23:11.902Z,102014.00
2023-03-28T17:28:04.354Z,102013.06
2023-03-28T17:32:57.993Z,102003.53
2023-03-28T17:37:53.436Z,101991.78
2023-03-28T17:42:48.967Z,101987.69
2023-03-28T17:47:40.270Z,101999.81
2023-03-28T17:52:33.233Z,101995.28
2023-03-28T17:57:25.726Z,102009.84
2023-03-28T18:02:21.611Z,102019.31
2023-03-28T18:07:24.890Z,102011.25
2023-03-28T18:12:16.392Z,102032.78
2023-03-28T18:17:08.639Z,102011.66
2023-03-28T18:22:05.209Z,102016.56
2023-03-28T18:26:56.932Z,102022.69
2023-03-28T18:31:49.265Z,102010.44
2023-03-28T18:36:42.088Z,101993.06
2023-03-28T18:41:37.492Z,101980.97
2023-03-28T18:46:30.307Z,101975.03
2023-03-28T18:51:24.746Z,101974.19
2023-03-28T18:56:17.424Z,101955.97
2023-03-28T19:01:16.306Z,101947.00
2023-03-28T19:06:08.226Z,101946.13
2023-03-28T19:11:04.268Z,101925.22
2023-03-28T19:16:04.068Z,101917.00
2023-03-28T19:21:01.996Z,101906.97
2023-03-28T19:25:53.677Z,101909.34
2023-03-28T19:30:47.417Z,101912.72
2023-03-28T19:35:39.087Z,101898.13
2023-03-28T19:40:33.337Z,101918.75
2023-03-28T19:45:26.779Z,101887.72
2023-03-28T19:50:20.591Z,101898.41
2023-03-28T19:55:16.189Z,101897.41
2023-03-28T20:00:12.979Z,101907.41
2023-03-28T20:05:03.453Z,101920.06
2023-03-28T20:09:57.278Z,101905.34
2023-03-28T20:14:49.077Z,101898.41
2023-03-28T20:19:42.638Z,101885.22
2023-03-28T20:24:35.453Z,101876.22
2023-03-28T20:29:27.520Z,101875.53
2023-03-28T20:34:18.376Z,101866.03
2023-03-28T20:39:15.849Z,101854.78
2023-03-28T20:44:10.378Z,101850.59
2023-03-28T20:49:01.698Z,101857.25
2023-03-28T20:53:54.458Z,101853.00
2023-03-28T20:58:48.200Z,101846.84
2023-03-28T21:03:57.550Z,101843.91
2023-03-28T21:08:50.202Z,101844.91
2023-03-28T21:13:42.528Z,101833.81
2023-03-28T21:18:38.500Z,101845.00
2023-03-28T21:23:35.546Z,101836.28
2023-03-28T21:28:36.928Z,101840.56
2023-03-28T21:33:27.913Z,101835.16
2023-03-28T21:38:23.498Z,101824.19
2023-03-28T21:43:13.549Z,101812.25
2023-03-28T21:48:03.792Z,101801.81
2023-03-28T21:52:58.095Z,101812.16
2023-03-28T21:57:51.283Z,101808.13
2023-03-28T22:02:42.509Z,101807.16
2023-03-28T22:07:36.478Z,101803.69
2023-03-28T22:12:31.398Z,101802.16
2023-03-28T22:17:26.121Z,101790.25
2023-03-28T22:22:18.587Z,101798.03
2023-03-28T22:27:10.399Z,101785.13
2023-03-28T22:32:00.788Z,101775.94
2023-03-28T22:36:55.655Z,101749.41
2023-03-28T22:41:47.897Z,101747.69
2023-03-28T22:46:41.001Z,101736.41
2023-03-28T22:51:31.383Z,101730.31
2023-03-28T22:56:28.487Z,101727.63
2023-03-28T23:01:19.264Z,101723.34
2023-03-28T23:06:10.586Z,101709.59
2023-03-28T23:11:01.903Z,101704.59
2023-03-28T23:15:55.929Z,101705.63
2023-03-28T23:20:46.008Z,101694.72
2023-03-28T23:25:36.685Z,101702.22
2023-03-28T23:30:27.619Z,101694.66
2023-03-28T23:35:20.705Z,101698.06
2023-03-28T23:40:18.063Z,101688.69
2023-03-28T23:45:09.385Z,101679.31
2023-03-28T23:49:59.805Z,101667.34
2023-03-28T23:54:52.357Z,101669.97
2023-03-28T23:59:42.321Z,101663.19
